메인 페이지
METAR-TAF:

METAR-TAF

공항 :

Dumas, 텍사스, 미국

위도: 35-51-28N, 경도: 102-00-47W, 고도: 1129m

현재 날씨관측

예보는 5분 전, 15:35시(UTC)에 발표되었습니다.
13kt, 순간 최대 풍속 20kt
온도 12°C
습도 67%
기압 1024 hPa
시정: 16.1km
고도 1700ft 상공 구름 많음
고도 4700ft 상공 흐림

METAR: KDUX 201535Z AUTO 35013G20KT 10SM BKN017 OVC047 12/06 A3023 RMK AO2 T01150056

시각: 10:40 (15:40 UTC)


TAF: 누락

4,000개 이상의 공항 관측 자료 및 예보 (METAR 및 TAF 보고).

지도상에서 검색 가능한 기상관측소가 노란 점과 빨간 점으로 표시되어 있습니다.

기상관측소 명을 보려면 표시 위로 마우스를 이동하세요.

날씨 관측과 예보를 보려면 클릭하세요.

지도 변경 : 확대하려면 엑스 표시가 있는 녹색 버튼, 축소하려면 빼기 표시가 있는 녹색 버튼, 다음 페이지의 지도를 보려면 녹색 화살표를 클릭하세요.


METAR-TAF: